Portada
METAR-TAF:

METAR-TAF

Aeropuertos :

Aeropuerto de Praga

Praga, República Checa

latitud: 50-06N, longitud: 014-15E, altitud: 365 m

Observación

El informe se hizo hace 19 minutos, a las 01:30 UTC
Viento 3 kt del oeste-suroeste
Temperatura 16°C
Humedad 63%
Presión 1016 hPa
Visibilidad 10 km o más
sin nubes por debajo de 1500 m y sin presencia de cumulonimbus.

METAR: LKPR 170130Z 24003KT CAVOK 16/09 Q1016 NOSIG

Hora: 03:49 (01:49 UTC)

Pronóstico

El informe se hizo hace 2 horas y 49 minutos, a las 23:00 UTC
Pronóstico válido del 17 a las 00 UTC al 18 a las 06 UTC
Viento 2 kt con dirección variable
Visibilidad 10 km o más
sin nubes por debajo de 1500 m y sin presencia de cumulonimbus.
Temporalmente
del 17 a las 06 UTC al 17 a las 19 UTC
Viento 6 kt del este-sureste

TAF: LKPR 162300Z 1700/1806 VRB02KT CAVOK TEMPO 1706/1719 12006KT

Observaciones y pronósticos meteorológicos de más de 4000 aeropuertos (mensajes METAR y TAF).

Los puntos amarillos y rojos representan las estaciones disponibles.

Ponga el ratón en el punto deseado para ver el nombre de la estación.

Haga clic para ver las observaciones y los pronósticos meteorológicos.

Para cambiar el mapa : haga clic en los botones verdes con una cruz de color negro para hacer un zoom, en el botón verde con un guión para alejar o en las flechas verdes para mapas adyacentes.


METAR-TAF: